Tiempo atmosférico en la estación meteorológica de Ordizia, Gipuzkoa (290 m.)



Fecha
DESCASC
Temp. máxima en grados centígrados (hora)
DESCASC
Temp. mínima en grados centígrados (hora)
DESCASC
Temp. media en grados centígrados
DESCASC
Racha de viento máxima en m/sg (hora)
DESCASC
Velocidad máxima media en intervalos de 10 minutos(hora)
DESCASC
Precipitaciones diarias en mm
DESCASC
Precipitaciones de 00:00 a 06:00 en mm
DESCASC
Precipitaciones de 06:00 a 12:00 en mm
DESCASC
Precipitaciones de 12:00 a 18:00 en mm
DESCASC
Precipitaciones de 18:00 a 24:00 en mm
DESCASC
06-07-2020 21.1 (13:20) 14.6 (23:59) 17.9 6.39 (15:40) 3.61 (15:40) 0.2 0 0.2 0 0
05-07-2020 26.8 (14:30) 11.7 (06:40) 19.2 7.78 (16:10) 3.89 (15:50) 0 0 0 0 0
04-07-2020 24.2 (16:20) 9.1 (06:50) 16.7 7.78 (16:10) 4.44 (14:30) 0 0 0 0 0
03-07-2020 20.4 (19:10) 12.7 (23:59) 16.5 7.78 (18:30) 3.61 (18:40) 0 0 0 0 0
02-07-2020 18.1 (14:00) 13.9 (00:00) 16 7.78 (15:00) 3.33 (14:10) 0.8 0.2 0 0 0.6
01-07-2020 21.5 (17:10) 17.5 (00:00) 19.5 5.56 (00:40) 3.06 (00:30) 1.4 0 1.4 0 0
30-06-2020 26.2 (14:50) 13.3 (00:00) 19.8 7.78 (18:30) 4.72 (15:40) 0 0 0 0 0
29-06-2020 19.6 (00:00) 16 (00:00) 17.8 5.83 (14:00) 3.33 (14:00) 0.8 0.2 0.6 0 0
28-06-2020 26.6 (17:20) 16.5 (00:00) 21.6 6.67 (15:50) 3.33 (15:50) 0 0 0 0 0
27-06-2020 26.7 (14:40) 15.4 (00:00) 21.1 6.39 (15:20) 3.33 (15:30) 0 0 0 0 0
26-06-2020 19.6 (16:30) 16.2 (00:00) 17.9 6.39 (16:10) 3.33 (16:10) 0.6 0 0.2 0 0.4
25-06-2020 28 (13:00) 17.2 (00:00) 22.6 10.28 (15:30) 4.72 (19:50) 5.2 0 0 0.6 4.6
24-06-2020 33.9 (17:00) 18 (00:00) 26 8.89 (22:10) 4.72 (22:10) 0 0 0 0 0
23-06-2020 31.1 (17:20) 14.4 (00:00) 22.8 5.83 (19:40) 3.61 (19:40) 0 0 0 0 0
22-06-2020 24.5 (15:50) 15 (00:00) 19.8 6.94 (13:30) 4.72 (12:50) 0 0 0 0 0
21-06-2020 24.8 (14:10) 12.3 (00:00) 18.5 8.89 (15:40) 5 (15:40) 0 0 0 0 0
20-06-2020 23.4 (15:30) 13 (00:00) 18.2 7.22 (16:30) 4.17 (15:50) 0 0 0 0 0
19-06-2020 21.4 (14:20) 10.4 (00:00) 15.9 8.61 (16:00) 5 (16:00) 0 0 0 0 0
18-06-2020 19.3 (15:40) 11.8 (00:00) 15.5 7.5 (16:20) 3.61 (16:40) 3.8 3.6 0.2 0 0
17-06-2020 19.6 (12:50) 11.5 (00:00) 15.6 7.78 (12:10) 4.44 (15:00) 4.4 0 0 0.2 4.2
16-06-2020 21.2 (12:50) 12.7 (00:00) 17 8.33 (13:50) 5.83 (13:50) 13.8 0 0 13 0.8
15-06-2020 20.5 (12:10) 12.1 (00:00) 16.3 6.67 (13:10) 3.61 (16:50) 0 0 0 0 0
14-06-2020 22.5 (13:50) 11.2 (00:00) 16.8 7.5 (16:40) 4.17 (14:00) 0 0 0 0 0
13-06-2020 20.7 (15:10) 11.7 (00:00) 16.2 6.67 (17:50) 3.33 (17:30) 1 0 0 0 1
12-06-2020 18.6 (16:40) 8.1 (00:00) 13.4 13.06 (13:10) 7.22 (14:30) 2.8 0 0 1 1.8
11-06-2020 19.6 (14:40) 10.1 (00:00) 14.9 11.39 (15:00) 5.56 (15:10) 18.8 0.2 0.2 11 7.4
10-06-2020 18.6 (13:30) 11.1 (00:00) 14.9 6.11 (13:40) 3.33 (13:40) 0.2 0.2 0 0 0
09-06-2020 16.1 (16:40) 10.5 (00:00) 13.3 7.78 (15:50) 4.17 (14:00) 4 3.4 0.6 0 0
08-06-2020 15.9 (18:20) 9.4 (05:40) 12.6 7.5 (19:20) 3.89 (17:50) 5.4 0.4 0.6 1.6 2.8
07-06-2020 15.4 (18:30) 10.3 (00:00) 12.8 6.11 (19:10) 2.5 (19:10) 4 1.6 1.4 0.2 0.8

Gráficas

Temp. máximas Temp. mínimas Temp. medias Precipitaciones Rachas de viento máximas Velocidades máximas media en intervalos de 10 minutos

Datos horarios

Fecha y hora oficial Temperatura (ºC) Velocidad del viento (km/h) Dirección del viento Racha (km/h) Dirección de racha Precipitación (mm) Presión (hPa) Tendencia (hPa) Humedad (%)
2020-07-06 23:00:00 14.9 3 Norte 8 Norte 0 -- -- 84
2020-07-06 22:00:00 15.5 3 Nordeste 8 Nordeste 0 -- -- 87
2020-07-06 21:00:00 16.7 3 Noroeste 9 Este 0 -- -- 80
2020-07-06 20:00:00 16.9 3 Sudeste 10 Este 0 -- -- 88
2020-07-06 19:00:00 17.1 2 Sudeste 15 Noroeste 0 -- -- 86
2020-07-06 18:00:00 17.3 3 Noroeste 14 Norte 0 -- -- 83
2020-07-06 17:00:00 18.1 3 Norte 17 Noroeste 0 -- -- 83
2020-07-06 16:00:00 18.8 7 Norte 23 Noroeste 0 -- -- 79
2020-07-06 15:00:00 19.4 6 Noroeste 18 Noroeste 0 -- -- 79
2020-07-06 14:00:00 18.5 7 Norte 22 Este 0 -- -- 87
2020-07-06 13:00:00 20.4 4 Norte 13 Este 0 -- -- 83
2020-07-06 12:00:00 20.6 6 Norte 19 Noroeste 0 -- -- 79
2020-07-06 11:00:00 19 4 Este 11 Este 0 -- -- 92
2020-07-06 10:00:00 18.4 5 Nordeste 16 Noroeste 0.2 -- -- 95
2020-07-06 09:00:00 17 0 Calma 4 Sudeste 0 -- -- 98
2020-07-06 08:00:00 16.2 0 Calma 5 Este 0 -- -- 98
2020-07-06 07:00:00 15.9 0 Calma 4 Este 0 -- -- 97
2020-07-06 06:00:00 16 0 Calma 3 Este 0 -- -- 95
2020-07-06 05:00:00 16 4 Este 6 Este 0 -- -- 92
2020-07-06 04:00:00 16.2 2 Este 3 Este 0 -- -- 89
2020-07-06 03:00:00 16.1 0 Calma 6 Noroeste 0 -- -- 88
2020-07-06 02:00:00 16.3 2 Sudoeste 4 Oeste 0 -- -- 87
2020-07-06 01:00:00 16.9 3 Oeste 6 Noroeste 0 -- -- 83
2020-07-06 00:00:00 17.2 3 Oeste 8 Este 0 -- -- 77
2020-07-05 23:00:00 18.4 4 Nordeste 9 Este 0 -- -- 74
2020-07-05 22:00:00 19.8 5 Nordeste 20 Este 0 -- -- 66
2020-07-05 21:00:00 21.3 8 Nordeste 18 Este 0 -- -- 56
2020-07-05 20:00:00 23.1 6 Este 19 Este 0 -- -- 56
2020-07-05 19:00:00 23.9 13 Este 24 Este 0 -- -- 52
2020-07-05 18:00:00 25.1 10 Este 26 Este 0 -- -- 51
2020-07-05 17:00:00 26.1 9 Este 28 Este 0 -- -- 52
2020-07-05 16:00:00 26.4 11 Este 25 Sudeste 0 -- -- 53
2020-07-05 15:00:00 26.7 13 Este 22 Este 0 -- -- 50
2020-07-05 14:00:00 26.3 11 Este 19 Este 0 -- -- 48
2020-07-05 13:00:00 25.8 6 Sudeste 12 Sudeste 0 -- -- 52
2020-07-05 12:00:00 24 5 Este 9 Este 0 -- -- 41
2020-07-05 11:00:00 21.3 3 Sudeste 9 Sur 0 -- -- 55
2020-07-05 10:00:00 18.6 4 Sudeste 8 Sudeste 0 -- -- 76
2020-07-05 09:00:00 15.7 4 Sudeste 7 Sudeste 0 -- -- 86
2020-07-05 08:00:00 13 2 Sudoeste 4 Sudeste 0 -- -- 93
2020-07-05 07:00:00 11.7 3 Noroeste 5 Este 0 -- -- 97
2020-07-05 06:00:00 11.8 4 Noroeste 4 Noroeste 0 -- -- 97
2020-07-05 05:00:00 12.3 0 Calma 4 Este 0 -- -- 96
2020-07-05 04:00:00 12.8 3 Nordeste 4 Este 0 -- -- 93
2020-07-05 03:00:00 13.7 2 Sudeste 6 Noroeste 0 -- -- 91
2020-07-05 02:00:00 14.4 0 Calma 5 Noroeste 0 -- -- 87
2020-07-05 01:00:00 15 4 Oeste 6 Sudoeste 0 -- -- 85
2020-07-05 00:00:00 16.5 0 Calma 6 Este 0 -- -- 77
2020-07-04 23:00:00 18 3 Este 10 Este 0 -- -- 72
2020-07-04 22:00:00 19.8 4 Este 18 Norte 0 -- -- 63
2020-07-04 21:00:00 20.8 8 Nordeste 18 Nordeste 0 -- -- 58
2020-07-04 20:00:00 22.6 6 Nordeste 17 Este 0 -- -- 55
2020-07-04 19:00:00 23.3 7 Este 19 Este 0 -- -- 54
2020-07-04 18:00:00 23.9 6 Nordeste 24 Este 0 -- -- 57
2020-07-04 17:00:00 24.1 8 Este 28 Este 0 -- -- 58
2020-07-04 16:00:00 23.8 14 Sudeste 24 Este 0 -- -- 60
2020-07-04 15:00:00 23.4 12 Sudeste 27 Sudeste 0 -- -- 62
2020-07-04 14:00:00 22.3 14 Sudeste 22 Sudeste 0 -- -- 62
2020-07-04 13:00:00 21.4 12 Este 17 Este 0 -- -- 62
2020-07-04 12:00:00 20.2 8 Sudeste 17 Sudeste 0 -- -- 66
2020-07-04 11:00:00 18.1 5 Sudeste 10 Este 0 -- -- 74
2020-07-04 10:00:00 14.7 5 Sudeste 9 Sudeste 0 -- -- 85
2020-07-04 09:00:00 11.8 3 Sudeste 8 Este 0 -- -- 100
2020-07-04 08:00:00 9.5 2 Oeste 5 Oeste 0 -- -- 100
2020-07-04 07:00:00 9.1 0 Calma 4 Noroeste 0 -- -- 100
2020-07-04 06:00:00 9.2 0 Calma 4 Oeste 0 -- -- 99
2020-07-04 05:00:00 9.6 0 Calma 4 Oeste 0 -- -- 98
2020-07-04 04:00:00 10.1 3 Sudoeste 5 Sudoeste 0 -- -- 98
2020-07-04 03:00:00 10.5 2 Oeste 3 Oeste 0 -- -- 97
2020-07-04 02:00:00 11 2 Oeste 4 Oeste 0 -- -- 95
2020-07-04 01:00:00 11.8 0 Calma 6 Oeste 0 -- -- 93
2020-07-04 00:00:00 12.7 3 Noroeste 9 Oeste 0 -- -- 88
2020-07-03 23:00:00 14.4 4 Sudeste 9 Norte 0 -- -- 81
2020-07-03 22:00:00 15.8 7 Norte 10 Norte 0 -- -- 73
2020-07-03 21:00:00 17.3 4 Norte 11 Norte 0 -- -- 67
2020-07-03 20:00:00 19.2 5 Norte 14 Noroeste 0 -- -- 60
2020-07-03 19:00:00 20.3 6 Noroeste 28 Noroeste 0 -- -- 59
2020-07-03 18:00:00 18.9 7 Norte 22 Este 0 -- -- 65
2020-07-03 17:00:00 19.6 5 Este 14 Este 0 -- -- 69
2020-07-03 16:00:00 19.5 6 Sudeste 16 Este 0 -- -- 68
2020-07-03 15:00:00 17.1 5 Nordeste 18 Noroeste 0 -- -- 78
2020-07-03 14:00:00 16.4 7 Norte 24 Noroeste 0 -- -- 78
2020-07-03 13:00:00 17.3 9 Noroeste 18 Noroeste 0 -- -- 75
2020-07-03 12:00:00 17.3 6 Noroeste 15 Noroeste 0 -- -- 77
2020-07-03 11:00:00 17.7 8 Este 18 Sudeste 0 -- -- 74
2020-07-03 10:00:00 16 5 Norte 11 Sudeste 0 -- -- 79
2020-07-03 09:00:00 15.5 8 Este 13 Sudeste 0 -- -- 92
2020-07-03 08:00:00 13.7 2 Este 4 Este 0 -- -- 98
2020-07-03 07:00:00 13.4 2 Este 8 Sudeste 0 -- -- 97
2020-07-03 06:00:00 13.4 4 Sudeste 9 Sudeste 0 -- -- 96
2020-07-03 05:00:00 13.5 3 Sudeste 8 Sudeste 0 -- -- 99
2020-07-03 04:00:00 13.6 3 Nordeste 6 Este 0 -- -- 99
2020-07-03 03:00:00 13.7 5 Este 8 Este 0 -- -- 98
2020-07-03 02:00:00 14 5 Este 7 Sudeste 0 -- -- 96
2020-07-03 01:00:00 13.9 3 Sudeste 7 Este 0 -- -- 98
2020-07-03 00:00:00 13.9 3 Sudeste 8 Este 0.2 -- -- 98
2020-07-02 23:00:00 14.2 4 Este 9 Noroeste 0 -- -- 96
2020-07-02 22:00:00 14.2 2 Este 11 Noroeste 0 -- -- 97
2020-07-02 21:00:00 14.4 6 Nordeste 15 Este 0.4 -- -- 96
2020-07-02 20:00:00 15.5 6 Este 14 Este 0 -- -- 91
2020-07-02 19:00:00 16.1 6 Este 12 Este 0 -- -- 88
2020-07-02 18:00:00 16.4 2 Sudoeste 18 Este 0 -- -- 87
2020-07-02 17:00:00 16.6 4 Este 15 Este 0 -- -- 83
2020-07-02 16:00:00 16.3 6 Norte 21 Noroeste 0 -- -- 84
2020-07-02 15:00:00 17.1 9 Norte 28 Noroeste 0 -- -- 81
2020-07-02 14:00:00 18.1 4 Norte 17 Sudeste 0 -- -- 85
2020-07-02 13:00:00 17.9 10 Este 18 Este 0 -- -- 91
2020-07-02 12:00:00 17.2 9 Este 17 Este 0 -- -- 94
2020-07-02 11:00:00 16.6 6 Sudeste 13 Este 0 -- -- 97
2020-07-02 10:00:00 16 5 Sudeste 10 Este 0 -- -- 99
2020-07-02 09:00:00 15.4 5 Este 9 Este 0 -- -- 99
2020-07-02 08:00:00 15.4 4 Este 8 Este 0 -- -- 99
2020-07-02 07:00:00 15.4 4 Este 6 Este 0 -- -- 98
2020-07-02 06:00:00 15.6 0 Calma 5 Sudeste 0.2 -- -- 98
2020-07-02 05:00:00 15.8 5 Sudeste 7 Sudeste 0 -- -- 97
2020-07-02 04:00:00 16.1 5 Noroeste 9 Oeste 0 -- -- 94
2020-07-02 03:00:00 16.6 3 Nordeste 12 Norte 0 -- -- 92
2020-07-02 02:00:00 16.9 4 Noroeste 11 Norte 0 -- -- 94
2020-07-02 01:00:00 17.5 5 Noroeste 12 Noroeste 0 -- -- 96
2020-07-02 00:00:00 17.9 3 Noroeste 10 Norte 0 -- -- 96
2020-07-01 23:00:00 18.2 5 Este 11 Este 0 -- -- 93
2020-07-01 22:00:00 18.4 6 Nordeste 13 Este 0 -- -- 91
2020-07-01 21:00:00 19 5 Nordeste 12 Este 0 -- -- 87
2020-07-01 20:00:00 19.6 9 Norte 17 Norte 0 -- -- 82
2020-07-01 19:00:00 20.4 3 Norte 14 Este 0 -- -- 82
2020-07-01 18:00:00 20.7 5 Nordeste 14 Este 0 -- -- 79
2020-07-01 17:00:00 21.2 7 Este 18 Este 0 -- -- 83
2020-07-01 16:00:00 20.3 5 Nordeste 14 Este 0 -- -- 84
2020-07-01 15:00:00 20.8 7 Este 13 Este 0 -- -- 86
2020-07-01 14:00:00 20.6 4 Nordeste 13 Este 0 -- -- 85
2020-07-01 13:00:00 20 5 Este 11 Este 0 -- -- 89
2020-07-01 12:00:00 19 4 Este 9 Este 0 -- -- 96
2020-07-01 11:00:00 17.9 5 Este 9 Este 0 -- -- 100
2020-07-01 10:00:00 17.7 6 Este 8 Este 0.4 -- -- 100
2020-07-01 09:00:00 17.6 3 Sudeste 4 Sudeste 0.6 -- -- 99
2020-07-01 08:00:00 17.6 0 Calma 8 Sudeste 0.4 -- -- 99
2020-07-01 07:00:00 17.5 4 Este 8 Este 0 -- -- 99
2020-07-01 06:00:00 17.7 5 Este 7 Este 0 -- -- 97
2020-07-01 05:00:00 18.1 3 Este 9 Este 0 -- -- 95
2020-07-01 04:00:00 18.3 3 Este 6 Este 0 -- -- 94
2020-07-01 03:00:00 18.3 4 Noroeste 14 Este 0 -- -- 94
2020-07-01 02:00:00 18.4 6 Sudeste 10 Oeste 0 -- -- 93
2020-07-01 01:00:00 18.1 7 Este 20 Este 0 -- -- 94
2020-07-01 00:00:00 18.7 4 Nordeste 10 Nordeste 0 -- -- 92
2020-06-30 23:00:00 19.6 3 Nordeste 17 Este 0 -- -- 88
2020-06-30 22:00:00 20.8 9 Nordeste 19 Este 0 -- -- 83
2020-06-30 21:00:00 22.5 6 Este 18 Este 0 -- -- 79
2020-06-30 20:00:00 23.7 10 Este 24 Este 0 -- -- 72
2020-06-30 19:00:00 24.6 12 Este 28 Este 0 -- -- 71
2020-06-30 18:00:00 25.5 11 Este 28 Este 0 -- -- 70
2020-06-30 17:00:00 25.7 13 Este 25 Este 0 -- -- 67
2020-06-30 16:00:00 25.7 13 Este 27 Este 0 -- -- 67
2020-06-30 15:00:00 26.1 14 Este 25 Este 0 -- -- 63
2020-06-30 14:00:00 25.8 11 Este 22 Sudeste 0 -- -- 59
2020-06-30 13:00:00 24.4 12 Sudeste 17 Sudeste 0 -- -- 48
2020-06-30 12:00:00 22.3 7 Este 13 Sudeste 0 -- -- 69
2020-06-30 11:00:00 19.4 8 Sudeste 16 Este 0 -- -- 81
2020-06-30 10:00:00 16.8 5 Sudeste 10 Sudeste 0 -- -- 93
2020-06-30 09:00:00 14.1 2 Oeste 5 Oeste 0 -- -- 100
2020-06-30 08:00:00 13.6 0 Calma 8 Oeste 0 -- -- 100
2020-06-30 07:00:00 13.5 4 Oeste 6 Oeste 0 -- -- 100
2020-06-30 06:00:00 13.4 0 Calma 4 Oeste 0 -- -- 99
2020-06-30 05:00:00 13.3 2 Oeste 4 Oeste 0 -- -- 99
2020-06-30 04:00:00 13.5 3 Oeste 6 Sudoeste 0 -- -- 97
2020-06-30 03:00:00 14.2 0 Calma 3 Este 0 -- -- 96
2020-06-30 02:00:00 14.7 0 Calma 5 Este 0 -- -- 94
2020-06-30 01:00:00 15.3 4 Este 6 Este 0 -- -- 92
2020-06-30 00:00:00 16.2 0 Calma 7 Este 0 -- -- 89
2020-06-29 23:00:00 16.7 4 Norte 12 Norte 0 -- -- 85
2020-06-29 22:00:00 16.9 7 Norte 15 Norte 0 -- -- 84
2020-06-29 21:00:00 17.1 6 Nordeste 15 Nordeste 0 -- -- 84
2020-06-29 20:00:00 17.8 6 Nordeste 15 Este 0 -- -- 83
2020-06-29 19:00:00 18.3 5 Nordeste 19 Nordeste 0 -- -- 84
2020-06-29 18:00:00 17.7 4 Nordeste 18 Norte 0 -- -- 86
2020-06-29 17:00:00 17.8 8 Nordeste 18 Nordeste 0 -- -- 88
2020-06-29 16:00:00 17.2 6 Nordeste 14 Este 0 -- -- 90
2020-06-29 15:00:00 17.6 5 Nordeste 19 Este 0 -- -- 92
2020-06-29 14:00:00 17.7 12 Este 21 Este 0 -- -- 90
2020-06-29 13:00:00 18.2 10 Este 16 Este 0 -- -- 93
2020-06-29 12:00:00 17.4 10 Este 15 Este 0.2 -- -- 93
2020-06-29 11:00:00 16.7 9 Este 14 Este 0 -- -- 97
2020-06-29 10:00:00 16.6 8 Este 11 Este 0 -- -- 97
2020-06-29 09:00:00 16.1 4 Nordeste 9 Este 0.2 -- -- 99
2020-06-29 08:00:00 16 5 Este 12 Este 0.2 -- -- 98
2020-06-29 07:00:00 16.5 5 Nordeste 12 Este 0 -- -- 94
2020-06-29 06:00:00 17.2 5 Nordeste 9 Noroeste 0.2 -- -- 96
2020-06-29 05:00:00 17.8 2 Este 6 Este 0 -- -- 94
2020-06-29 04:00:00 18.2 5 Este 8 Este 0 -- -- 91
2020-06-29 03:00:00 18.9 0 Calma 3 Noroeste 0 -- -- 85
2020-06-29 02:00:00 19 2 Norte 9 Nordeste 0 -- -- 84
2020-06-29 01:00:00 19.2 3 Este 8 Este 0 -- -- 82
2020-06-29 00:00:00 19.6 4 Este 11 Noroeste 0 -- -- 81
2020-06-28 23:00:00 20.1 3 Nordeste 10 Este 0 -- -- 78
2020-06-28 22:00:00 20.5 5 Este 11 Este 0 -- -- 76
2020-06-28 21:00:00 21.2 5 Norte 22 Este 0 -- -- 73
2020-06-28 20:00:00 22.4 6 Norte 17 Norte 0 -- -- 68
2020-06-28 19:00:00 24.6 6 Nordeste 22 Oeste 0 -- -- 64
2020-06-28 18:00:00 26.4 5 Este 17 Noroeste 0 -- -- 60
2020-06-28 17:00:00 26.3 5 Sudeste 18 Este 0 -- -- 62
2020-06-28 16:00:00 25 10 Este 24 Este 0 -- -- 71
2020-06-28 15:00:00 24.6 8 Sudeste 19 Este 0 -- -- 72
2020-06-28 14:00:00 24.6 5 Sudeste 15 Sudeste 0 -- -- 75
2020-06-28 13:00:00 22.1 5 Sudeste 15 Este 0 -- -- 82
2020-06-28 12:00:00 19.9 8 Este 12 Este 0 -- -- 88
2020-06-28 11:00:00 19.2 5 Sudeste 10 Este 0 -- -- 88
2020-06-28 10:00:00 17.9 4 Sudeste 8 Este 0 -- -- 94
2020-06-28 09:00:00 17.1 2 Nordeste 8 Este 0 -- -- 97
2020-06-28 08:00:00 16.7 3 Norte 11 Este 0 -- -- 98
2020-06-28 07:00:00 16.5 5 Este 11 Nordeste 0 -- -- 99
2020-06-28 06:00:00 16.5 7 Este 12 Este 0 -- -- 98
2020-06-28 05:00:00 16.8 5 Este 12 Este 0 -- -- 98
2020-06-28 04:00:00 17.1 6 Este 13 Este 0 -- -- 98
2020-06-28 03:00:00 17.8 5 Este 17 Norte 0 -- -- 94
2020-06-28 02:00:00 18.7 5 Este 13 Sudeste 0 -- -- 91
2020-06-28 01:00:00 19 4 Nordeste 14 Nordeste 0 -- -- 83
2020-06-28 00:00:00 19.9 2 Nordeste 12 Este 0 -- -- 80
2020-06-27 23:00:00 20.7 4 Nordeste 12 Este 0 -- -- 76
2020-06-27 22:00:00 21.7 5 Nordeste 13 Norte 0 -- -- 73
2020-06-27 21:00:00 23.5 4 Nordeste 12 Norte 0 -- -- 67
2020-06-27 20:00:00 24.9 5 Nordeste 15 Norte 0 -- -- 61
2020-06-27 19:00:00 25.5 6 Nordeste 19 Este 0 -- -- 58
2020-06-27 18:00:00 25.3 8 Este 18 Este 0 -- -- 64
2020-06-27 17:00:00 25.5 7 Este 19 Este 0 -- -- 68
2020-06-27 16:00:00 26.4 7 Este 23 Este 0 -- -- 67
2020-06-27 15:00:00 26.1 6 Nordeste 18 Oeste 0 -- -- 64
2020-06-27 14:00:00 26.3 5 Oeste 15 Oeste 0 -- -- 62
2020-06-27 13:00:00 25.8 6 Sudeste 13 Sudeste 0 -- -- 62
2020-06-27 12:00:00 22.8 4 Sudeste 12 Sudeste 0 -- -- 79
2020-06-27 11:00:00 19.5 8 Sudeste 13 Sudeste 0 -- -- 91
2020-06-27 10:00:00 16.5 3 Sudeste 7 Sudeste 0 -- -- 99
2020-06-27 09:00:00 16 2 Oeste 8 Oeste 0 -- -- 100
2020-06-27 08:00:00 15.5 2 Noroeste 5 Noroeste 0 -- -- 100
2020-06-27 07:00:00 15.5 5 Oeste 7 Oeste 0 -- -- 100
2020-06-27 06:00:00 15.7 4 Noroeste 8 Noroeste 0 -- -- 100
2020-06-27 05:00:00 15.9 0 Calma 5 Este 0 -- -- 100
2020-06-27 04:00:00 16.1 2 Sudeste 6 Noroeste 0 -- -- 99
2020-06-27 03:00:00 16.2 3 Noroeste 4 Noroeste 0 -- -- 100
2020-06-27 02:00:00 16.2 3 Norte 13 Este 0 -- -- 100
2020-06-27 01:00:00 16.2 0 Calma 6 Este 0 -- -- 100
2020-06-27 00:00:00 16.2 3 Este 8 Nordeste 0.2 -- -- 100
2020-06-26 23:00:00 16.6 2 Sur 4 Sudeste 0.2 -- -- 99
2020-06-26 22:00:00 16.9 2 Sudoeste 12 Este 0 -- -- 97
2020-06-26 21:00:00 17 6 Este 13 Este 0 -- -- 95
2020-06-26 20:00:00 17.5 6 Este 12 Este 0 -- -- 95
2020-06-26 19:00:00 17.5 8 Este 19 Sudeste 0 -- -- 94
2020-06-26 18:00:00 18.2 3 Nordeste 13 Noroeste 0 -- -- 92
2020-06-26 17:00:00 18.9 6 Nordeste 23 Este 0 -- -- 90
2020-06-26 16:00:00 19.4 12 Este 21 Nordeste 0 -- -- 90
2020-06-26 15:00:00 18.8 9 Este 18 Este 0 -- -- 92
2020-06-26 14:00:00 19.2 8 Sudeste 16 Este 0 -- -- 91
2020-06-26 13:00:00 19.2 7 Este 15 Este 0 -- -- 91
2020-06-26 12:00:00 18.6 10 Este 15 Este 0 -- -- 95
2020-06-26 11:00:00 17.6 7 Este 13 Este 0 -- -- 96
2020-06-26 10:00:00 17.6 2 Sur 4 Sudeste 0 -- -- 99
2020-06-26 09:00:00 16.7 3 Este 8 Este 0.2 -- -- 100
2020-06-26 08:00:00 16.4 4 Este 9 Este 0 -- -- 100
2020-06-26 07:00:00 16.4 0 Calma 6 Este 0 -- -- 100
2020-06-26 06:00:00 16.4 3 Este 12 Este 0 -- -- 100
2020-06-26 05:00:00 16.6 3 Este 8 Este 0 -- -- 100
2020-06-26 04:00:00 16.8 3 Este 9 Nordeste 0 -- -- 100
2020-06-26 03:00:00 16.9 4 Nordeste 15 Este 0 -- -- 100
2020-06-26 02:00:00 17.1 5 Este 11 Este 0 -- -- 100
2020-06-26 01:00:00 17.3 3 Sudeste 8 Este 0 -- -- 100
2020-06-26 00:00:00 17.2 6 Este 17 Este 0 -- -- 100
2020-06-25 23:00:00 17.9 4 Este 10 Este 0 -- -- 99
2020-06-25 22:00:00 18.1 4 Nordeste 14 Noroeste 0 -- -- 98
2020-06-25 21:00:00 18.4 4 Noroeste 30 Este 0.4 -- -- 97
2020-06-25 20:00:00 18.5 7 Este 31 Oeste 4 -- -- 97
2020-06-25 19:00:00 18.8 4 Nordeste 15 Este 0.2 -- -- 93
2020-06-25 18:00:00 18.7 6 Nordeste 23 Nordeste 0 -- -- 93
2020-06-25 17:00:00 19.7 4 Sur 23 Noroeste 0.6 -- -- 91
2020-06-25 16:00:00 23.1 9 Este 37 Este 0 -- -- 81
2020-06-25 15:00:00 25.3 6 Nordeste 15 Este 0 -- -- 70
2020-06-25 14:00:00 26 5 Este 12 Este 0 -- -- 73
2020-06-25 13:00:00 28 9 Este 17 Este 0 -- -- 60
2020-06-25 12:00:00 26 10 Este 19 Este 0 -- -- 72
2020-06-25 11:00:00 25.7 7 Sudeste 16 Este 0 -- -- 71
2020-06-25 10:00:00 22.8 10 Este 23 Este 0 -- -- 77
2020-06-25 09:00:00 20 5 Este 10 Este 0 -- -- 92
2020-06-25 08:00:00 18.1 0 Calma 7 Este 0 -- -- 98
2020-06-25 07:00:00 17.8 2 Noroeste 6 Oeste 0 -- -- 98
2020-06-25 06:00:00 18.2 3 Sudeste 6 Sudoeste 0 -- -- 97
2020-06-25 05:00:00 18.4 0 Calma 5 Oeste 0 -- -- 97
2020-06-25 04:00:00 18.9 2 Sur 8 Oeste 0 -- -- 95
2020-06-25 03:00:00 19.1 4 Este 8 Nordeste 0 -- -- 96
2020-06-25 02:00:00 19 3 Sudeste 9 Noroeste 0 -- -- 95
2020-06-25 01:00:00 19.6 5 Noroeste 8 Noroeste 0 -- -- 94
2020-06-25 00:00:00 19.5 3 Nordeste 13 Este 0 -- -- 95
2020-06-24 23:00:00 19.5 6 Sudeste 32 Este 0 -- -- 93
2020-06-24 22:00:00 21.5 10 Este 24 Este 0 -- -- 85
2020-06-24 21:00:00 25.7 9 Este 15 Este 0 -- -- 75
2020-06-24 20:00:00 29.9 4 Nordeste 10 Este 0 -- -- 61
2020-06-24 19:00:00 32.5 2 Nordeste 12 Nordeste 0 -- -- 51
2020-06-24 18:00:00 33.3 9 Este 17 Sudeste 0 -- -- 42
2020-06-24 17:00:00 33.9 7 Sudeste 14 Sudeste 0 -- -- 46
2020-06-24 16:00:00 32.3 6 Sudeste 14 Este 0 -- -- 48
2020-06-24 15:00:00 32.3 8 Sudeste 25 Sur 0 -- -- 48
2020-06-24 14:00:00 32.4 14 Sudeste 26 Sur 0 -- -- 49
2020-06-24 13:00:00 31.2 8 Sudeste 17 Sudeste 0 -- -- 53
2020-06-24 12:00:00 30.3 9 Sudeste 24 Sudeste 0 -- -- 50
2020-06-24 11:00:00 28.9 6 Sudeste 12 Sudeste 0 -- -- 53
2020-06-24 10:00:00 26.2 4 Oeste 13 Oeste 0 -- -- 64
2020-06-24 09:00:00 24.2 8 Oeste 17 Oeste 0 -- -- 65
2020-06-24 08:00:00 20.9 6 Noroeste 14 Oeste 0 -- -- 83
2020-06-24 07:00:00 20.9 7 Oeste 22 Oeste 0 -- -- 78
2020-06-24 06:00:00 18 6 Oeste 12 Noroeste 0 -- -- 98
2020-06-24 05:00:00 18.8 3 Oeste 7 Noroeste 0 -- -- 96
2020-06-24 04:00:00 19.1 2 Sudeste 7 Noroeste 0 -- -- 96
2020-06-24 03:00:00 19.4 4 Este 9 Oeste 0 -- -- 96
2020-06-24 02:00:00 20.5 3 Sudoeste 5 Sudoeste 0 -- -- 93
2020-06-24 01:00:00 21.4 2 Sudoeste 4 Noroeste 0 -- -- 91
2020-06-24 00:00:00 22.5 4 Oeste 5 Oeste 0 -- -- 87
2020-06-23 23:00:00 23.9 0 Calma 4 Noroeste 0 -- -- 79
2020-06-23 22:00:00 25.5 0 Calma 17 Este 0 -- -- 73
2020-06-23 21:00:00 26.5 8 Este 16 Este 0 -- -- 69
2020-06-23 20:00:00 27.9 10 Este 21 Este 0 -- -- 64
2020-06-23 19:00:00 29.4 10 Este 21 Este 0 -- -- 59
2020-06-23 18:00:00 30.5 6 Nordeste 14 Este 0 -- -- 58
2020-06-23 17:00:00 31 6 Nordeste 17 Este 0 -- -- 56
2020-06-23 16:00:00 30.7 7 Este 18 Este 0 -- -- 54
2020-06-23 15:00:00 29.9 8 Este 15 Este 0 -- -- 58
2020-06-23 14:00:00 28.5 8 Este 15 Este 0 -- -- 58
2020-06-23 13:00:00 26.7 5 Este 11 Este 0 -- -- 65
2020-06-23 12:00:00 23.6 4 Sudeste 9 Sur 0 -- -- 77
2020-06-23 11:00:00 20.1 4 Sudeste 9 Sudeste 0 -- -- 85
2020-06-23 10:00:00 16.2 2 Sudoeste 6 Sudeste 0 -- -- 100
2020-06-23 09:00:00 14.9 0 Calma 7 Oeste 0 -- -- 100
2020-06-23 08:00:00 14.5 4 Noroeste 6 Noroeste 0 -- -- 100
2020-06-23 07:00:00 14.5 0 Calma 6 Oeste 0 -- -- 100
2020-06-23 06:00:00 14.6 0 Calma 4 Sudeste 0 -- -- 99
2020-06-23 05:00:00 14.6 2 Sudeste 4 Sudeste 0 -- -- 99
2020-06-23 04:00:00 14.5 2 Sudoeste 5 Este 0 -- -- 98
2020-06-23 03:00:00 14.8 0 Calma 5 Sudoeste 0 -- -- 97
2020-06-23 02:00:00 15.5 2 Sudoeste 5 Oeste 0 -- -- 96
2020-06-23 01:00:00 16.3 0 Calma 5 Este 0 -- -- 94
2020-06-23 00:00:00 16.9 3 Este 12 Este 0 -- -- 92
2020-06-22 23:00:00 17.9 8 Este 15 Este 0 -- -- 89
2020-06-22 22:00:00 19.4 9 Este 13 Este 0 -- -- 83
2020-06-22 21:00:00 21.2 8 Norte 14 Este 0 -- -- 75
2020-06-22 20:00:00 22.8 5 Nordeste 18 Este 0 -- -- 67
2020-06-22 19:00:00 23.5 5 Nordeste 16 Norte 0 -- -- 64
2020-06-22 18:00:00 24 6 Este 22 Este 0 -- -- 65
2020-06-22 17:00:00 24.3 11 Este 22 Este 0 -- -- 62
2020-06-22 16:00:00 24.4 13 Este 24 Este 0 -- -- 61
2020-06-22 15:00:00 23.8 11 Este 25 Sudeste 0 -- -- 62
2020-06-22 14:00:00 23 14 Este 25 Este 0 -- -- 64
2020-06-22 13:00:00 22.3 14 Este 24 Sudeste 0 -- -- 66
2020-06-22 12:00:00 21.8 10 Este 19 Este 0 -- -- 69
2020-06-22 11:00:00 20.8 3 Sudeste 9 Sudeste 0 -- -- 77
2020-06-22 10:00:00 17.3 3 Sudoeste 8 Sudeste 0 -- -- 87
2020-06-22 09:00:00 15.9 0 Calma 3 Sudeste 0 -- -- 91
2020-06-22 08:00:00 15.3 0 Calma 4 Noroeste 0 -- -- 93
2020-06-22 07:00:00 15 2 Noroeste 3 Oeste 0 -- -- 92
2020-06-22 06:00:00 15.1 3 Este 4 Este 0 -- -- 92
2020-06-22 05:00:00 15.8 4 Noroeste 4 Noroeste 0 -- -- 86
2020-06-22 04:00:00 16.3 3 Noroeste 4 Nordeste 0 -- -- 85
2020-06-22 03:00:00 16.5 0 Calma 5 Este 0 -- -- 85
2020-06-22 02:00:00 16.7 0 Calma 2 Noroeste 0 -- -- 84
2020-06-22 01:00:00 16.8 0 Calma 5 Oeste 0 -- -- 82
2020-06-22 00:00:00 17 2 Noroeste 6 Este 0 -- -- 78
2020-06-21 23:00:00 17.2 2 Noroeste 12 Norte 0 -- -- 75
2020-06-21 22:00:00 18.6 6 Norte 21 Noroeste 0 -- -- 66
2020-06-21 21:00:00 19.6 9 Noroeste 23 Norte 0 -- -- 62
2020-06-21 20:00:00 21.6 14 Noroeste 21 Noroeste 0 -- -- 59
2020-06-21 19:00:00 23 4 Este 18 Nordeste 0 -- -- 61
2020-06-21 18:00:00 23.3 9 Nordeste 25 Norte 0 -- -- 61
2020-06-21 17:00:00 24.3 7 Nordeste 27 Nordeste 0 -- -- 61
2020-06-21 16:00:00 24.3 12 Este 32 Nordeste 0 -- -- 61
2020-06-21 15:00:00 24.6 12 Este 26 Nordeste 0 -- -- 58
2020-06-21 14:00:00 24.7 11 Este 23 Sudeste 0 -- -- 56
2020-06-21 13:00:00 24.4 10 Este 18 Este 0 -- -- 63
2020-06-21 12:00:00 23.1 8 Sudeste 15 Este 0 -- -- 68
2020-06-21 11:00:00 20.7 3 Sudeste 10 Sudeste 0 -- -- 75
2020-06-21 10:00:00 17.2 5 Sudeste 8 Sudeste 0 -- -- 90
2020-06-21 09:00:00 13.9 3 Sudeste 5 Sudeste 0 -- -- 100
2020-06-21 08:00:00 12.5 2 Oeste 4 Este 0 -- -- 100
2020-06-21 07:00:00 12.3 0 Calma 5 Oeste 0 -- -- 99
2020-06-21 06:00:00 12.5 0 Calma 2 Sudeste 0 -- -- 99
2020-06-21 05:00:00 12.8 0 Calma 4 Oeste 0 -- -- 98
2020-06-21 04:00:00 13.3 2 Sudoeste 5 Oeste 0 -- -- 97
2020-06-21 03:00:00 13.8 0 Calma 6 Noroeste 0 -- -- 96
2020-06-21 02:00:00 14.3 2 Sudeste 3 Sudeste 0 -- -- 95
2020-06-21 01:00:00 15.1 2 Noroeste 5 Este 0 -- -- 92
2020-06-21 00:00:00 15.8 3 Este 10 Este 0 -- -- 89
2020-06-20 23:00:00 16.7 4 Nordeste 18 Este 0 -- -- 86
2020-06-20 22:00:00 18 7 Este 18 Este 0 -- -- 81
2020-06-20 21:00:00 19.9 8 Nordeste 15 Este 0 -- -- 75
2020-06-20 20:00:00 21.8 5 Nordeste 19 Este 0 -- -- 68
2020-06-20 19:00:00 22.3 8 Nordeste 22 Este 0 -- -- 66
2020-06-20 18:00:00 22.6 9 Este 23 Este 0 -- -- 69
2020-06-20 17:00:00 23 10 Este 26 Este 0 -- -- 69
2020-06-20 16:00:00 23.2 12 Este 25 Este 0 -- -- 68
2020-06-20 15:00:00 23.2 13 Este 24 Este 0 -- -- 66
2020-06-20 14:00:00 22.8 11 Este 21 Sudeste 0 -- -- 64
2020-06-20 13:00:00 21.7 8 Sudeste 16 Sudeste 0 -- -- 68
2020-06-20 12:00:00 20.3 9 Sudeste 19 Este 0 -- -- 74
2020-06-20 11:00:00 18.5 8 Sudeste 15 Sur 0 -- -- 83
2020-06-20 10:00:00 15.9 5 Sudeste 10 Sur 0 -- -- 88
2020-06-20 09:00:00 14.5 3 Oeste 6 Oeste 0 -- -- 91
2020-06-20 08:00:00 13.6 2 Oeste 4 Sudoeste 0 -- -- 97
2020-06-20 07:00:00 13.3 0 Calma 5 Oeste 0 -- -- 98
2020-06-20 06:00:00 13.1 0 Calma 3 Oeste 0 -- -- 97
2020-06-20 05:00:00 13.1 2 Oeste 4 Oeste 0 -- -- 97
2020-06-20 04:00:00 13.2 0 Calma 4 Sudeste 0 -- -- 95
2020-06-20 03:00:00 13.8 0 Calma 5 Sudeste 0 -- -- 93
2020-06-20 02:00:00 14.4 0 Calma 8 Este 0 -- -- 90
2020-06-20 01:00:00 15 3 Nordeste 10 Este 0 -- -- 88
2020-06-20 00:00:00 15.6 2 Este 9 Este 0 -- -- 87
2020-06-19 23:00:00 16 2 Nordeste 11 Este 0 -- -- 86
2020-06-19 22:00:00 16.5 6 Nordeste 14 Este 0 -- -- 84
2020-06-19 21:00:00 17 6 Nordeste 18 Norte 0 -- -- 81
2020-06-19 20:00:00 18 5 Nordeste 15 Este 0 -- -- 78
2020-06-19 19:00:00 18 11 Este 26 Nordeste 0 -- -- 77
2020-06-19 18:00:00 18.7 9 Este 27 Este 0 -- -- 75
2020-06-19 17:00:00 19 9 Este 27 Este 0 -- -- 75
2020-06-19 16:00:00 19.8 18 Este 31 Este 0 -- -- 75
2020-06-19 15:00:00 20.8 16 Este 30 Este 0 -- -- 70
2020-06-19 14:00:00 21.2 15 Este 24 Este 0 -- -- 69
2020-06-19 13:00:00 20.4 14 Este 24 Sudeste 0 -- -- 65
2020-06-19 12:00:00 19.9 10 Sudeste 17 Sudeste 0 -- -- 76
2020-06-19 11:00:00 17.4 6 Este 13 Este 0 -- -- 77
2020-06-19 10:00:00 15.3 3 Sudeste 8 Este 0 -- -- 87
2020-06-19 09:00:00 12.3 0 Calma 4 Sudeste 0 -- -- 99
2020-06-19 08:00:00 11.2 0 Calma 4 Oeste 0 -- -- 100
2020-06-19 07:00:00 10.8 0 Calma 5 Oeste 0 -- -- 100
2020-06-19 06:00:00 10.6 0 Calma 4 Este 0 -- -- 99
2020-06-19 05:00:00 10.4 0 Calma 3 Sudeste 0 -- -- 99
2020-06-19 04:00:00 10.7 2 Oeste 4 Noroeste 0 -- -- 98
2020-06-19 03:00:00 11.1 0 Calma 4 Oeste 0 -- -- 97
2020-06-19 02:00:00 11.6 0 Calma 5 Sudoeste 0 -- -- 95
2020-06-19 01:00:00 12.2 3 Oeste 7 Noroeste 0 -- -- 93
2020-06-19 00:00:00 13 2 Este 4 Este 0 -- -- 91
2020-06-18 23:00:00 13.8 2 Este 9 Este 0 -- -- 87
2020-06-18 22:00:00 15 4 Nordeste 12 Este 0 -- -- 80
2020-06-18 21:00:00 16.1 5 Nordeste 11 Este 0 -- -- 76
2020-06-18 20:00:00 16.9 5 Este 19 Nordeste 0 -- -- 75
2020-06-18 19:00:00 17.1 6 Norte 21 Este 0 -- -- 75
2020-06-18 18:00:00 17.6 8 Este 26 Este 0 -- -- 75
2020-06-18 17:00:00 17.6 7 Este 27 Este 0 -- -- 75
2020-06-18 16:00:00 18.6 11 Este 25 Nordeste 0 -- -- 71
2020-06-18 15:00:00 18.3 11 Este 23 Este 0 -- -- 70
2020-06-18 14:00:00 18 5 Nordeste 16 Este 0 -- -- 74
2020-06-18 13:00:00 18.7 6 Este 12 Este 0 -- -- 75
2020-06-18 12:00:00 16.7 3 Noroeste 6 Oeste 0 -- -- 80
2020-06-18 11:00:00 16.4 3 Sudoeste 12 Sudeste 0 -- -- 83
2020-06-18 10:00:00 14.2 3 Este 7 Este 0 -- -- 100
2020-06-18 09:00:00 12.6 3 Sudeste 6 Sur 0 -- -- 100
2020-06-18 08:00:00 12.2 2 Oeste 7 Este 0 -- -- 100
2020-06-18 07:00:00 12 0 Calma 8 Este 0.2 -- -- 100
2020-06-18 06:00:00 11.9 5 Este 8 Este 2.2 -- -- 100
2020-06-18 05:00:00 11.9 2 Sudeste 9 Este 1.4 -- -- 100
2020-06-18 04:00:00 11.9 8 Este 12 Este 0 -- -- 99
2020-06-18 03:00:00 12.1 4 Norte 9 Noroeste 0 -- -- 100
2020-06-18 02:00:00 12.2 0 Calma 4 Noroeste 0 -- -- 99
2020-06-18 01:00:00 12.7 3 Este 6 Este 0 -- -- 98
2020-06-18 00:00:00 13.1 0 Calma 5 Nordeste 0 -- -- 97
2020-06-17 23:00:00 13.4 5 Este 8 Nordeste 0.2 -- -- 95
2020-06-17 22:00:00 13.6 3 Nordeste 10 Este 0 -- -- 93
2020-06-17 21:00:00 13.9 6 Este 12 Este 0 -- -- 94
2020-06-17 20:00:00 14.2 7 Este 16 Este 0 -- -- 93
2020-06-17 19:00:00 14.2 4 Este 12 Este 4 -- -- 95
2020-06-17 18:00:00 15.4 5 Nordeste 21 Este 0 -- -- 85
2020-06-17 17:00:00 15.7 12 Este 21 Este 0.2 -- -- 84
2020-06-17 16:00:00 16.8 9 Este 18 Este 0 -- -- 80
2020-06-17 15:00:00 17.4 16 Sudeste 25 Este 0 -- -- 73
2020-06-17 14:00:00 17.5 8 Norte 22 Noroeste 0 -- -- 70
2020-06-17 13:00:00 19.3 6 Sudeste 28 Noroeste 0 -- -- 61
2020-06-17 12:00:00 16.9 14 Noroeste 27 Noroeste 0 -- -- 64
2020-06-17 11:00:00 15.5 6 Oeste 18 Oeste 0 -- -- 77
2020-06-17 10:00:00 14.4 2 Sur 8 Sudeste 0 -- -- 92
2020-06-17 09:00:00 13.5 5 Sudeste 9 Sudeste 0 -- -- 95
2020-06-17 08:00:00 11.9 3 Sudoeste 8 Noroeste 0 -- -- 99
2020-06-17 07:00:00 11.5 4 Oeste 6 Oeste 0 -- -- 99
2020-06-17 06:00:00 11.8 4 Oeste 7 Oeste 0 -- -- 99
2020-06-17 05:00:00 11.9 2 Sudoeste 7 Noroeste 0 -- -- 99
2020-06-17 04:00:00 11.9 4 Noroeste 9 Noroeste 0 -- -- 99
2020-06-17 03:00:00 12.3 2 Nordeste 7 Oeste 0 -- -- 99
2020-06-17 02:00:00 12.6 3 Noroeste 5 Noroeste 0 -- -- 98
2020-06-17 01:00:00 13 0 Calma 5 Oeste 0 -- -- 97
2020-06-17 00:00:00 13.2 0 Calma 8 Noroeste 0 -- -- 97
2020-06-16 23:00:00 13.5 3 Oeste 7 Noroeste 0 -- -- 97
2020-06-16 22:00:00 13.9 0 Calma 4 Este 0 -- -- 97
2020-06-16 21:00:00 14 3 Este 8 Sudeste 0 -- -- 95
2020-06-16 20:00:00 14.3 4 Sur 23 Noroeste 0 -- -- 93
2020-06-16 19:00:00 14.5 7 Noroeste 27 Norte 0.8 -- -- 90
2020-06-16 18:00:00 16.1 5 Nordeste 14 Este 0 -- -- 89
2020-06-16 17:00:00 16.4 5 Este 15 Este 0 -- -- 89
2020-06-16 16:00:00 15.3 4 Este 12 Este 0.2 -- -- 93
2020-06-16 15:00:00 14.8 6 Sudeste 24 Noroeste 6.6 -- -- 97
2020-06-16 14:00:00 14.6 15 Noroeste 30 Norte 6.2 -- -- 94
2020-06-16 13:00:00 21.2 7 Este 19 Sudeste 0 -- -- 61
2020-06-16 12:00:00 19.3 9 Sudeste 15 Sudeste 0 -- -- 69
2020-06-16 11:00:00 17.4 2 Oeste 11 Sudeste 0 -- -- 75
2020-06-16 10:00:00 15.3 4 Sudeste 8 Este 0 -- -- 84
2020-06-16 09:00:00 13.8 4 Sudeste 6 Sur 0 -- -- 92
2020-06-16 08:00:00 13 3 Este 5 Este 0 -- -- 95
2020-06-16 07:00:00 12.7 3 Este 8 Este 0 -- -- 95
2020-06-16 06:00:00 12.8 3 Oeste 4 Noroeste 0 -- -- 93
2020-06-16 05:00:00 12.9 2 Norte 4 Norte 0 -- -- 92
2020-06-16 04:00:00 13.2 2 Norte 4 Oeste 0 -- -- 90
2020-06-16 03:00:00 13.3 3 Oeste 6 Oeste 0 -- -- 89
2020-06-16 02:00:00 13.6 3 Sudeste 5 Sudeste 0 -- -- 88
2020-06-16 01:00:00 14.2 2 Este 4 Este 0 -- -- 84
2020-06-16 00:00:00 15.1 3 Norte 9 Norte 0 -- -- 79
2020-06-15 23:00:00 15.5 4 Norte 9 Norte 0 -- -- 75
2020-06-15 22:00:00 15.9 3 Norte 9 Noroeste 0 -- -- 71
2020-06-15 21:00:00 16.9 3 Norte 15 Este 0 -- -- 68
2020-06-15 20:00:00 18 4 Nordeste 13 Este 0 -- -- 62
2020-06-15 19:00:00 18.8 7 Nordeste 24 Este 0 -- -- 61
2020-06-15 18:00:00 19.3 6 Nordeste 19 Este 0 -- -- 61
2020-06-15 17:00:00 19.3 12 Este 23 Este 0 -- -- 65
2020-06-15 16:00:00 19.3 7 Este 19 Este 0 -- -- 67
2020-06-15 15:00:00 20.2 11 Sudeste 19 Este 0 -- -- 65
2020-06-15 14:00:00 18.9 4 Nordeste 24 Este 0 -- -- 70
2020-06-15 13:00:00 19.3 8 Este 18 Este 0 -- -- 69
2020-06-15 12:00:00 20.2 7 Sudeste 21 Este 0 -- -- 65
2020-06-15 11:00:00 18.6 7 Este 15 Este 0 -- -- 72
2020-06-15 10:00:00 15.8 3 Sudoeste 6 Sudeste 0 -- -- 83
2020-06-15 09:00:00 13.4 2 Sur 4 Sudeste 0 -- -- 91
2020-06-15 08:00:00 12.5 0 Calma 4 Oeste 0 -- -- 94
2020-06-15 07:00:00 12.2 0 Calma 4 Sudeste 0 -- -- 93
2020-06-15 06:00:00 12.4 2 Oeste 3 Oeste 0 -- -- 91
2020-06-15 05:00:00 12.5 0 Calma 3 Oeste 0 -- -- 90
2020-06-15 04:00:00 12.7 0 Calma 3 Noroeste 0 -- -- 89
2020-06-15 03:00:00 12.9 0 Calma 2 Sudoeste 0 -- -- 88
2020-06-15 02:00:00 12.9 2 Oeste 5 Sudeste 0 -- -- 85
2020-06-15 01:00:00 13.9 2 Sudeste 6 Norte 0 -- -- 79
2020-06-15 00:00:00 14.7 3 Norte 7 Norte 0 -- -- 74
2020-06-14 23:00:00 15.3 4 Nordeste 9 Norte 0 -- -- 67
2020-06-14 22:00:00 15.7 3 Noroeste 15 Norte 0 -- -- 65
2020-06-14 21:00:00 16.6 7 Norte 20 Norte 0 -- -- 63
2020-06-14 20:00:00 18.3 4 Noroeste 15 Nordeste 0 -- -- 62
2020-06-14 19:00:00 19.1 2 Oeste 16 Este 0 -- -- 60
2020-06-14 18:00:00 18.6 6 Nordeste 21 Este 0 -- -- 57
2020-06-14 17:00:00 18.7 7 Noroeste 27 Norte 0 -- -- 62
2020-06-14 16:00:00 21.2 10 Noroeste 22 Noroeste 0 -- -- 61
2020-06-14 15:00:00 21.6 8 Oeste 23 Oeste 0 -- -- 54
2020-06-14 14:00:00 21.6 15 Noroeste 23 Oeste 0 -- -- 53
2020-06-14 13:00:00 21 8 Oeste 19 Oeste 0 -- -- 58
2020-06-14 12:00:00 20.4 5 Oeste 12 Oeste 0 -- -- 61
2020-06-14 11:00:00 17.7 2 Noroeste 6 Sur 0 -- -- 73
2020-06-14 10:00:00 16.4 4 Sudeste 10 Este 0 -- -- 83
2020-06-14 09:00:00 13.4 0 Calma 5 Sudeste 0 -- -- 98
2020-06-14 08:00:00 12 0 Calma 6 Oeste 0 -- -- 99
2020-06-14 07:00:00 11.3 3 Sudoeste 6 Este 0 -- -- 98
2020-06-14 06:00:00 12 4 Este 6 Noroeste 0 -- -- 97
2020-06-14 05:00:00 12.5 0 Calma 4 Este 0 -- -- 96
2020-06-14 04:00:00 12.9 0 Calma 3 Noroeste 0 -- -- 95
2020-06-14 03:00:00 13 0 Calma 5 Sudeste 0 -- -- 95
2020-06-14 02:00:00 13.3 2 Este 5 Nordeste 0 -- -- 93
2020-06-14 01:00:00 13.4 3 Oeste 5 Oeste 0 -- -- 91
2020-06-14 00:00:00 13.8 2 Nordeste 9 Norte 0 -- -- 88
2020-06-13 23:00:00 14.2 4 Norte 8 Norte 0 -- -- 86
2020-06-13 22:00:00 14.6 3 Este 10 Oeste 0 -- -- 90
2020-06-13 21:00:00 15 3 Norte 18 Este 0 -- -- 87
2020-06-13 20:00:00 15.6 9 Este 17 Nordeste 1 -- -- 86
2020-06-13 19:00:00 18 6 Noroeste 15 Este 0 -- -- 74
2020-06-13 18:00:00 18.7 11 Este 24 Este 0 -- -- 69
2020-06-13 17:00:00 18.9 6 Norte 14 Norte 0 -- -- 68
2020-06-13 16:00:00 19.6 4 Noroeste 12 Sudeste 0 -- -- 58
2020-06-13 15:00:00 20.2 10 Sudeste 18 Sudeste 0 -- -- 64
2020-06-13 14:00:00 19.5 8 Este 12 Sudeste 0 -- -- 59
2020-06-13 13:00:00 19.7 5 Sur 18 Sudeste 0 -- -- 61
2020-06-13 12:00:00 19.3 6 Sudeste 13 Sudeste 0 -- -- 67
2020-06-13 11:00:00 16 6 Oeste 10 Oeste 0 -- -- 75
2020-06-13 10:00:00 14.9 7 Oeste 12 Oeste 0 -- -- 80
2020-06-13 09:00:00 14.1 3 Oeste 6 Sudeste 0 -- -- 91
2020-06-13 08:00:00 12.6 0 Calma 4 Noroeste 0 -- -- 94
2020-06-13 07:00:00 12.7 0 Calma 6 Sudeste 0 -- -- 86
2020-06-13 06:00:00 13.7 5 Noroeste 10 Noroeste 0 -- -- 75
2020-06-13 05:00:00 13.6 6 Noroeste 12 Noroeste 0 -- -- 76
2020-06-13 04:00:00 12.6 4 Noroeste 15 Oeste 0 -- -- 81
2020-06-13 03:00:00 13.2 8 Oeste 15 Oeste 0 -- -- 78
2020-06-13 02:00:00 12.4 7 Sudoeste 14 Sur 0 -- -- 86
2020-06-13 01:00:00 12.1 4 Norte 13 Este 0 -- -- 88
2020-06-13 00:00:00 11.7 3 Sudoeste 10 Norte 0.2 -- -- 93
2020-06-12 23:00:00 12.2 4 Sudeste 10 Este 0 -- -- 95
2020-06-12 22:00:00 12.7 5 Nordeste 12 Este 0 -- -- 94
2020-06-12 21:00:00 14 4 Sudeste 12 Norte 0.2 -- -- 93
2020-06-12 20:00:00 15.4 5 Noroeste 17 Este 0 -- -- 87
2020-06-12 19:00:00 13.3 5 Este 15 Oeste 1.4 -- -- 95
2020-06-12 18:00:00 14.6 13 Oeste 28 Sudeste 1 -- -- 86
2020-06-12 17:00:00 18.5 18 Sudeste 28 Sudeste 0 -- -- 59
2020-06-12 16:00:00 18.4 13 Sudeste 33 Sudeste 0 -- -- 64
2020-06-12 15:00:00 17.5 24 Sudeste 41 Sudeste 0 -- -- 61
2020-06-12 14:00:00 17.8 19 Sudeste 47 Sudeste 0 -- -- 64
2020-06-12 13:00:00 16.2 23 Sudeste 35 Sur 0 -- -- 66
2020-06-12 12:00:00 16.6 17 Sur 36 Sur 0 -- -- 63
2020-06-12 11:00:00 15.3 9 Sur 32 Sudeste 0 -- -- 66
2020-06-12 10:00:00 13 9 Sur 35 Sur 0 -- -- 75
2020-06-12 09:00:00 12.5 15 Oeste 26 Oeste 0 -- -- 75
2020-06-12 08:00:00 12.1 5 Sur 39 Sudoeste 0 -- -- 76
2020-06-12 07:00:00 11.7 13 Sudoeste 40 Sur 0 -- -- 74
2020-06-12 06:00:00 11 15 Sur 41 Sudoeste 0 -- -- 76
2020-06-12 05:00:00 9.6 17 Oeste 31 Oeste 0 -- -- 91
2020-06-12 04:00:00 8.3 5 Noroeste 13 Noroeste 0 -- -- 100
2020-06-12 03:00:00 8.2 5 Nordeste 10 Nordeste 0 -- -- 100
2020-06-12 02:00:00 8.9 3 Sudeste 5 Sudeste 0 -- -- 100
2020-06-12 01:00:00 9.7 3 Sudoeste 8 Sur 0 -- -- 100
2020-06-12 00:00:00 10.1 2 Este 9 Sudeste 0.8 -- -- 100
2020-06-11 23:00:00 10.5 3 Sudeste 10 Este 0.2 -- -- 100
2020-06-11 22:00:00 10.5 3 Este 9 Oeste 0.4 -- -- 100
2020-06-11 21:00:00 10.9 2 Sur 7 Sudeste 3 -- -- 100
2020-06-11 20:00:00 11.2 3 Sudeste 8 Sudeste 0.4 -- -- 100
2020-06-11 19:00:00 11.5 2 Sudeste 6 Sudeste 2.6 -- -- 100
2020-06-11 18:00:00 11.5 3 Noroeste 10 Este 1 -- -- 99
2020-06-11 17:00:00 11.8 4 Noroeste 20 Oeste 3.4 -- -- 98
2020-06-11 16:00:00 12.8 4 Noroeste 39 Sudoeste 6.4 -- -- 95
2020-06-11 15:00:00 16.9 18 Noroeste 41 Noroeste 0.2 -- -- 78
2020-06-11 14:00:00 17.8 3 Nordeste 5 Este 0 -- -- 74
2020-06-11 13:00:00 17 3 Oeste 10 Noroeste 0 -- -- 75
2020-06-11 12:00:00 15.9 4 Noroeste 12 Noroeste 0 -- -- 79
2020-06-11 11:00:00 14.6 4 Oeste 9 Noroeste 0 -- -- 90
2020-06-11 10:00:00 13.5 2 Oeste 7 Noroeste 0 -- -- 100
2020-06-11 09:00:00 12.5 0 Calma 4 Sudeste 0.2 -- -- 100
2020-06-11 08:00:00 12.1 2 Sudeste 4 Sudeste 0 -- -- 100
2020-06-11 07:00:00 11.8 3 Oeste 4 Oeste 0 -- -- 100
2020-06-11 06:00:00 11.9 2 Sudeste 4 Noroeste 0 -- -- 99
2020-06-11 05:00:00 12 0 Calma 3 Sudeste 0 -- -- 99
2020-06-11 04:00:00 12.2 0 Calma 3 Este 0 -- -- 99
2020-06-11 03:00:00 12.4 0 Calma 3 Noroeste 0 -- -- 98
2020-06-11 02:00:00 12.4 0 Calma 5 Este 0 -- -- 98
2020-06-11 01:00:00 12.7 2 Este 4 Este 0.2 -- -- 97
2020-06-11 00:00:00 13.1 0 Calma 5 Sudeste 0 -- -- 95
2020-06-10 23:00:00 13.3 2 Noroeste 6 Este 0 -- -- 91
2020-06-10 22:00:00 13.7 5 Este 10 Norte 0 -- -- 91
2020-06-10 21:00:00 14.2 4 Noroeste 12 Este 0 -- -- 90
2020-06-10 20:00:00 15.1 4 Norte 12 Este 0 -- -- 81
2020-06-10 19:00:00 15.5 10 Este 15 Este 0 -- -- 78
2020-06-10 18:00:00 16.3 4 Nordeste 12 Este 0 -- -- 73
2020-06-10 17:00:00 16 6 Este 14 Este 0 -- -- 77
2020-06-10 16:00:00 16.9 6 Nordeste 16 Este 0 -- -- 74
2020-06-10 15:00:00 17.8 4 Norte 19 Este 0 -- -- 67
2020-06-10 14:00:00 17.5 11 Este 22 Sudeste 0 -- -- 69
2020-06-10 13:00:00 17.2 4 Este 8 Sudeste 0 -- -- 65
2020-06-10 12:00:00 17.1 3 Sur 8 Sudeste 0 -- -- 72
2020-06-10 11:00:00 15.6 4 Sur 9 Sudeste 0 -- -- 82
2020-06-10 10:00:00 13.6 3 Sudeste 6 Este 0 -- -- 94
2020-06-10 09:00:00 12.2 3 Sudeste 4 Sudeste 0 -- -- 100
2020-06-10 08:00:00 11.6 0 Calma 4 Este 0 -- -- 100
2020-06-10 07:00:00 11.2 2 Oeste 5 Este 0 -- -- 100
2020-06-10 06:00:00 11.2 3 Noroeste 8 Este 0 -- -- 99
2020-06-10 05:00:00 11.5 4 Noroeste 6 Este 0 -- -- 99
2020-06-10 04:00:00 11.7 2 Noroeste 5 Oeste 0.2 -- -- 98
2020-06-10 03:00:00 11.9 0 Calma 4 Sudeste 0 -- -- 96
2020-06-10 02:00:00 12 3 Noroeste 6 Este 0 -- -- 95
2020-06-10 01:00:00 12.1 2 Noroeste 6 Norte 0 -- -- 92
2020-06-10 00:00:00 12.3 5 Este 8 Norte 0 -- -- 93
2020-06-09 23:00:00 12.7 3 Noroeste 9 Nordeste 0 -- -- 90
2020-06-09 22:00:00 13.1 3 Este 9 Este 0 -- -- 89
2020-06-09 21:00:00 13.8 4 Este 9 Nordeste 0 -- -- 87
2020-06-09 20:00:00 14.4 4 Este 7 Este 0 -- -- 85
2020-06-09 19:00:00 14.7 4 Este 14 Sudeste 0 -- -- 83
2020-06-09 18:00:00 13.8 6 Noroeste 19 Noroeste 0 -- -- 80
2020-06-09 17:00:00 15.4 6 Este 22 Oeste 0 -- -- 76
2020-06-09 16:00:00 15.1 7 Oeste 28 Noroeste 0 -- -- 76
2020-06-09 15:00:00 14.8 6 Sudeste 26 Oeste 0 -- -- 81
2020-06-09 14:00:00 13.6 15 Oeste 24 Oeste 0 -- -- 84
2020-06-09 13:00:00 12.8 13 Oeste 18 Oeste 0 -- -- 91
2020-06-09 12:00:00 13.2 5 Sudeste 10 Este 0.4 -- -- 95
2020-06-09 11:00:00 13.2 5 Sudeste 14 Sudeste 0 -- -- 98
2020-06-09 10:00:00 11.8 2 Nordeste 7 Este 0 -- -- 100
2020-06-09 09:00:00 11.3 2 Sudeste 5 Este 0 -- -- 100
2020-06-09 08:00:00 11 2 Sur 7 Este 0.2 -- -- 100
2020-06-09 07:00:00 10.6 3 Noroeste 4 Noroeste 0 -- -- 100
2020-06-09 06:00:00 10.6 0 Calma 5 Noroeste 0 -- -- 100
2020-06-09 05:00:00 10.7 3 Sudeste 9 Norte 0 -- -- 100
2020-06-09 04:00:00 10.6 5 Este 9 Este 0.8 -- -- 100
2020-06-09 03:00:00 10.8 0 Calma 8 Norte 0.4 -- -- 100
2020-06-09 02:00:00 11.1 5 Sudeste 10 Sudeste 1 -- -- 100
2020-06-09 01:00:00 11.1 0 Calma 5 Norte 1.2 -- -- 99
2020-06-09 00:00:00 11.2 3 Noroeste 5 Noroeste 0.2 -- -- 99
2020-06-08 23:00:00 11.5 0 Calma 6 Este 0.4 -- -- 98
2020-06-08 22:00:00 11.8 4 Sudeste 7 Noroeste 1.4 -- -- 97
2020-06-08 21:00:00 12.1 3 Nordeste 18 Oeste 0.4 -- -- 93
2020-06-08 20:00:00 12.9 11 Noroeste 27 Oeste 0.2 -- -- 87
2020-06-08 19:00:00 13.8 10 Noroeste 23 Noroeste 0.2 -- -- 83
2020-06-08 18:00:00 15.3 11 Sudeste 21 Este 0 -- -- 84
2020-06-08 17:00:00 13.6 8 Este 24 Noroeste 1.6 -- -- 92
2020-06-08 16:00:00 14.1 8 Oeste 19 Sudoeste 0 -- -- 84
2020-06-08 15:00:00 14.5 4 Oeste 23 Norte 0 -- -- 85
2020-06-08 14:00:00 14.6 4 Nordeste 15 Norte 0 -- -- 83
2020-06-08 13:00:00 13.8 8 Oeste 19 Oeste 0 -- -- 91
2020-06-08 12:00:00 12.7 5 Sudoeste 15 Sudoeste 0 -- -- 93
2020-06-08 11:00:00 12.1 6 Oeste 13 Oeste 0.4 -- -- 98
2020-06-08 10:00:00 11.6 5 Sudoeste 9 Oeste 0 -- -- 100
2020-06-08 09:00:00 10.6 0 Calma 3 Este 0.2 -- -- 100
2020-06-08 08:00:00 10.1 0 Calma 4 Sudeste 0 -- -- 100
2020-06-08 07:00:00 9.7 4 Noroeste 6 Noroeste 0 -- -- 100
2020-06-08 06:00:00 9.6 0 Calma 8 Oeste 0 -- -- 100
2020-06-08 05:00:00 9.9 0 Calma 5 Este 0 -- -- 100
2020-06-08 04:00:00 9.9 0 Calma 5 Este 0 -- -- 99
2020-06-08 03:00:00 9.8 0 Calma 3 Este 0.2 -- -- 99
2020-06-08 02:00:00 9.9 0 Calma 6 Noroeste 0.2 -- -- 98
2020-06-08 01:00:00 9.8 0 Calma 6 Oeste 0 -- -- 97
2020-06-08 00:00:00 10.3 2 Sur 6 Este 0 -- -- 97
2020-06-07 23:00:00 10.8 3 Oeste 15 Noroeste 0.2 -- -- 92
2020-06-07 22:00:00 11.6 3 Norte 6 Oeste 0 -- -- 83
2020-06-07 21:00:00 12.8 2 Noroeste 12 Norte 0 -- -- 83
2020-06-07 20:00:00 12.7 2 Oeste 22 Noroeste 0.6 -- -- 82
2020-06-07 19:00:00 14.4 6 Noroeste 19 Noroeste 0 -- -- 71
2020-06-07 18:00:00 14.3 4 Noroeste 21 Noroeste 0 -- -- 69
2020-06-07 17:00:00 15 4 Noroeste 9 Noroeste 0 -- -- 66
2020-06-07 16:00:00 13.7 3 Norte 12 Noroeste 0.2 -- -- 75
2020-06-07 15:00:00 14.2 5 Sudeste 12 Sudeste 0 -- -- 81
2020-06-07 14:00:00 13.9 4 Sudeste 8 Este 0 -- -- 84
2020-06-07 13:00:00 12.7 4 Sudeste 6 Sudeste 0 -- -- 90
2020-06-07 12:00:00 12.2 0 Calma 9 Este 0 -- -- 92
2020-06-07 11:00:00 11.4 6 Este 10 Sudeste 0.2 -- -- 95
2020-06-07 10:00:00 11.6 3 Este 18 Norte 0 -- -- 94
2020-06-07 09:00:00 11.5 8 Norte 19 Noroeste 0.4 -- -- 100
2020-06-07 08:00:00 11.4 0 Calma 6 Este 0.4 -- -- 100
2020-06-07 07:00:00 11.4 3 Sudeste 5 Sudeste 0.4 -- -- 100
2020-06-07 06:00:00 11.5 2 Sudeste 8 Este 0 -- -- 99
2020-06-07 05:00:00 11.7 4 Este 8 Este 0.2 -- -- 97
2020-06-07 04:00:00 12.2 7 Este 19 Norte 0.2 -- -- 93
2020-06-07 03:00:00 13.1 6 Norte 18 Norte 0 -- -- 96
2020-06-07 02:00:00 13.6 4 Este 8 Este 0.8 -- -- 100
2020-06-07 01:00:00 13.7 0 Calma 6 Nordeste 0.4 -- -- 100
2020-06-07 00:00:00 13.9 2 Este 7 Este 0.2 -- -- 100